sensor_id;sensor_type;location;lat;lon;timestamp;P1;durP1;ratioP1;P2;durP2;ratioP2
26622;SDS011;14254;50.968;5.366;2022-09-13T00:00:36;5.32;;;4.93;;
26622;SDS011;14254;50.968;5.366;2022-09-13T00:03:02;6.35;;;4.90;;
26622;SDS011;14254;50.968;5.366;2022-09-13T00:05:28;8.27;;;5.45;;
26622;SDS011;14254;50.968;5.366;2022-09-13T00:07:55;7.90;;;5.15;;
26622;SDS011;14254;50.968;5.366;2022-09-13T00:10:22;6.28;;;5.45;;
26622;SDS011;14254;50.968;5.366;2022-09-13T00:12:48;11.40;;;6.30;;
26622;SDS011;14254;50.968;5.366;2022-09-13T00:15:14;6.13;;;5.35;;
26622;SDS011;14254;50.968;5.366;2022-09-13T00:17:40;6.40;;;5.50;;
26622;SDS011;14254;50.968;5.366;2022-09-13T00:20:05;11.00;;;5.35;;
26622;SDS011;14254;50.968;5.366;2022-09-13T00:22:32;7.30;;;5.15;;
26622;SDS011;14254;50.968;5.366;2022-09-13T00:24:58;10.20;;;5.20;;
26622;SDS011;14254;50.968;5.366;2022-09-13T00:27:24;6.90;;;5.05;;
26622;SDS011;14254;50.968;5.366;2022-09-13T00:29:50;5.30;;;4.80;;
26622;SDS011;14254;50.968;5.366;2022-09-13T00:32:16;8.63;;;5.05;;
26622;SDS011;14254;50.968;5.366;2022-09-13T00:34:42;9.45;;;5.18;;
26622;SDS011;14254;50.968;5.366;2022-09-13T00:37:07;8.18;;;5.65;;
26622;SDS011;14254;50.968;5.366;2022-09-13T00:39:33;8.25;;;5.38;;
26622;SDS011;14254;50.968;5.366;2022-09-13T00:41:59;5.50;;;4.82;;
26622;SDS011;14254;50.968;5.366;2022-09-13T00:47:13;9.38;;;5.22;;
26622;SDS011;14254;50.968;5.366;2022-09-13T00:49:41;10.18;;;5.40;;
26622;SDS011;14254;50.968;5.366;2022-09-13T00:52:11;11.35;;;5.63;;
26622;SDS011;14254;50.968;5.366;2022-09-13T00:54:44;7.88;;;5.40;;
26622;SDS011;14254;50.968;5.366;2022-09-13T00:57:14;14.65;;;5.45;;
26622;SDS011;14254;50.968;5.366;2022-09-13T00:59:45;8.77;;;5.47;;
26622;SDS011;14254;50.968;5.366;2022-09-13T01:02:25;5.97;;;5.40;;
26622;SDS011;14254;50.968;5.366;2022-09-13T01:04:52;11.93;;;5.90;;
26622;SDS011;14254;50.968;5.366;2022-09-13T01:07:18;11.80;;;5.47;;
26622;SDS011;14254;50.968;5.366;2022-09-13T01:09:45;10.13;;;5.22;;
26622;SDS011;14254;50.968;5.366;2022-09-13T01:15:10;6.03;;;5.22;;
26622;SDS011;14254;50.968;5.366;2022-09-13T01:17:36;9.88;;;5.22;;
26622;SDS011;14254;50.968;5.366;2022-09-13T01:20:03;8.88;;;5.13;;
26622;SDS011;14254;50.968;5.366;2022-09-13T01:38:44;6.03;;;4.30;;
26622;SDS011;14254;50.968;5.366;2022-09-13T01:41:41;8.50;;;4.97;;
26622;SDS011;14254;50.968;5.366;2022-09-13T01:47:05;8.00;;;4.63;;
26622;SDS011;14254;50.968;5.366;2022-09-13T01:49:46;6.07;;;4.63;;
26622;SDS011;14254;50.968;5.366;2022-09-13T01:58:01;7.88;;;4.60;;
26622;SDS011;14254;50.968;5.366;2022-09-13T02:01:20;10.35;;;4.78;;
26622;SDS011;14254;50.968;5.366;2022-09-13T02:03:56;7.60;;;4.57;;
26622;SDS011;14254;50.968;5.366;2022-09-13T02:06:45;12.48;;;5.10;;
26622;SDS011;14254;50.968;5.366;2022-09-13T02:09:25;9.98;;;4.25;;
26622;SDS011;14254;50.968;5.366;2022-09-13T02:11:56;6.18;;;4.60;;
26622;SDS011;14254;50.968;5.366;2022-09-13T02:14:39;6.28;;;4.78;;
26622;SDS011;14254;50.968;5.366;2022-09-13T02:17:09;8.10;;;5.05;;
26622;SDS011;14254;50.968;5.366;2022-09-13T02:22:13;6.18;;;5.30;;
26622;SDS011;14254;50.968;5.366;2022-09-13T02:24:43;5.78;;;4.55;;
26622;SDS011;14254;50.968;5.366;2022-09-13T02:27:14;5.78;;;5.13;;
26622;SDS011;14254;50.968;5.366;2022-09-13T02:29:44;7.05;;;4.07;;
26622;SDS011;14254;50.968;5.366;2022-09-13T02:32:17;6.13;;;5.00;;
26622;SDS011;14254;50.968;5.366;2022-09-13T02:34:54;10.95;;;5.40;;
26622;SDS011;14254;50.968;5.366;2022-09-13T02:37:28;6.90;;;3.92;;
26622;SDS011;14254;50.968;5.366;2022-09-13T02:40:02;10.02;;;4.93;;
26622;SDS011;14254;50.968;5.366;2022-09-13T02:42:38;13.65;;;5.05;;
26622;SDS011;14254;50.968;5.366;2022-09-13T02:45:08;7.03;;;4.88;;
26622;SDS011;14254;50.968;5.366;2022-09-13T02:55:41;15.95;;;6.95;;
26622;SDS011;14254;50.968;5.366;2022-09-13T02:58:19;8.85;;;5.50;;
26622;SDS011;14254;50.968;5.366;2022-09-13T03:00:49;5.78;;;5.00;;
26622;SDS011;14254;50.968;5.366;2022-09-13T03:03:15;7.93;;;5.97;;
26622;SDS011;14254;50.968;5.366;2022-09-13T03:05:41;5.50;;;4.93;;
26622;SDS011;14254;50.968;5.366;2022-09-13T03:08:08;6.90;;;4.30;;
26622;SDS011;14254;50.968;5.366;2022-09-13T03:24:10;7.15;;;4.25;;
26622;SDS011;14254;50.968;5.366;2022-09-13T03:29:54;8.05;;;5.28;;
26622;SDS011;14254;50.968;5.366;2022-09-13T03:41:01;8.20;;;4.20;;
26622;SDS011;14254;50.968;5.366;2022-09-13T03:45:41;7.20;;;4.75;;
26622;SDS011;14254;50.968;5.366;2022-09-13T03:48:20;6.05;;;4.25;;
26622;SDS011;14254;50.968;5.366;2022-09-13T03:50:47;5.65;;;4.47;;
26622;SDS011;14254;50.968;5.366;2022-09-13T03:53:17;5.35;;;4.35;;
26622;SDS011;14254;50.968;5.366;2022-09-13T03:55:47;4.72;;;4.32;;
26622;SDS011;14254;50.968;5.366;2022-09-13T03:58:14;4.78;;;4.30;;
26622;SDS011;14254;50.968;5.366;2022-09-13T04:00:43;8.75;;;4.68;;
26622;SDS011;14254;50.968;5.366;2022-09-13T04:03:09;6.15;;;4.25;;
26622;SDS011;14254;50.968;5.366;2022-09-13T04:05:36;5.55;;;4.30;;
26622;SDS011;14254;50.968;5.366;2022-09-13T04:08:02;4.45;;;4.03;;
26622;SDS011;14254;50.968;5.366;2022-09-13T04:10:32;5.90;;;4.07;;
26622;SDS011;14254;50.968;5.366;2022-09-13T04:12:59;5.47;;;4.25;;
26622;SDS011;14254;50.968;5.366;2022-09-13T04:15:26;9.18;;;4.38;;
26622;SDS011;14254;50.968;5.366;2022-09-13T04:17:52;8.85;;;4.68;;
26622;SDS011;14254;50.968;5.366;2022-09-13T04:20:18;7.45;;;5.32;;
26622;SDS011;14254;50.968;5.366;2022-09-13T04:22:49;9.43;;;4.60;;
26622;SDS011;14254;50.968;5.366;2022-09-13T04:27:42;9.63;;;4.35;;
26622;SDS011;14254;50.968;5.366;2022-09-13T04:30:07;8.30;;;4.75;;
26622;SDS011;14254;50.968;5.366;2022-09-13T04:32:33;7.53;;;4.55;;
26622;SDS011;14254;50.968;5.366;2022-09-13T04:34:59;8.95;;;4.53;;
26622;SDS011;14254;50.968;5.366;2022-09-13T04:37:25;7.47;;;4.85;;
26622;SDS011;14254;50.968;5.366;2022-09-13T04:39:51;8.48;;;4.60;;
26622;SDS011;14254;50.968;5.366;2022-09-13T04:42:17;6.10;;;4.93;;
26622;SDS011;14254;50.968;5.366;2022-09-13T04:44:43;8.45;;;4.65;;
26622;SDS011;14254;50.968;5.366;2022-09-13T04:47:09;9.18;;;5.07;;
26622;SDS011;14254;50.968;5.366;2022-09-13T04:49:34;5.70;;;5.10;;
26622;SDS011;14254;50.968;5.366;2022-09-13T04:52:00;6.72;;;4.70;;
26622;SDS011;14254;50.968;5.366;2022-09-13T04:54:26;7.72;;;4.60;;
26622;SDS011;14254;50.968;5.366;2022-09-13T04:56:52;10.85;;;4.28;;
26622;SDS011;14254;50.968;5.366;2022-09-13T04:59:18;9.60;;;4.70;;
26622;SDS011;14254;50.968;5.366;2022-09-13T05:01:44;7.28;;;5.25;;
26622;SDS011;14254;50.968;5.366;2022-09-13T05:04:10;7.75;;;4.85;;
26622;SDS011;14254;50.968;5.366;2022-09-13T05:06:36;6.18;;;4.68;;
26622;SDS011;14254;50.968;5.366;2022-09-13T05:09:02;6.75;;;4.20;;
26622;SDS011;14254;50.968;5.366;2022-09-13T05:11:29;4.75;;;4.30;;
26622;SDS011;14254;50.968;5.366;2022-09-13T05:13:56;8.35;;;4.93;;
26622;SDS011;14254;50.968;5.366;2022-09-13T05:16:23;6.47;;;4.80;;
26622;SDS011;14254;50.968;5.366;2022-09-13T05:18:54;10.18;;;4.93;;
26622;SDS011;14254;50.968;5.366;2022-09-13T05:21:21;8.45;;;4.70;;
26622;SDS011;14254;50.968;5.366;2022-09-13T05:23:48;6.88;;;4.75;;
26622;SDS011;14254;50.968;5.366;2022-09-13T05:26:18;7.25;;;4.75;;
26622;SDS011;14254;50.968;5.366;2022-09-13T05:28:44;6.63;;;5.13;;
26622;SDS011;14254;50.968;5.366;2022-09-13T05:31:18;10.48;;;4.90;;
26622;SDS011;14254;50.968;5.366;2022-09-13T05:33:46;10.82;;;4.70;;
26622;SDS011;14254;50.968;5.366;2022-09-13T05:36:16;12.55;;;5.38;;
26622;SDS011;14254;50.968;5.366;2022-09-13T05:38:42;10.68;;;4.93;;
26622;SDS011;14254;50.968;5.366;2022-09-13T05:41:08;9.73;;;5.43;;
26622;SDS011;14254;50.968;5.366;2022-09-13T05:43:34;14.20;;;7.25;;
26622;SDS011;14254;50.968;5.366;2022-09-13T05:48:27;13.15;;;6.22;;
26622;SDS011;14254;50.968;5.366;2022-09-13T05:50:54;8.45;;;5.65;;
26622;SDS011;14254;50.968;5.366;2022-09-13T05:53:19;12.20;;;5.15;;
26622;SDS011;14254;50.968;5.366;2022-09-13T05:55:45;9.93;;;5.80;;
26622;SDS011;14254;50.968;5.366;2022-09-13T05:58:11;6.80;;;4.82;;
26622;SDS011;14254;50.968;5.366;2022-09-13T06:00:37;5.45;;;4.35;;
26622;SDS011;14254;50.968;5.366;2022-09-13T06:03:03;6.10;;;4.57;;
26622;SDS011;14254;50.968;5.366;2022-09-13T06:05:28;11.25;;;4.65;;
26622;SDS011;14254;50.968;5.366;2022-09-13T06:07:54;9.15;;;4.97;;
26622;SDS011;14254;50.968;5.366;2022-09-13T06:10:19;8.55;;;5.07;;
26622;SDS011;14254;50.968;5.366;2022-09-13T06:12:45;4.45;;;3.97;;
26622;SDS011;14254;50.968;5.366;2022-09-13T06:15:11;8.98;;;4.50;;
26622;SDS011;14254;50.968;5.366;2022-09-13T06:17:37;7.22;;;3.83;;
26622;SDS011;14254;50.968;5.366;2022-09-13T06:20:03;5.95;;;4.07;;
26622;SDS011;14254;50.968;5.366;2022-09-13T06:22:29;8.02;;;4.00;;
26622;SDS011;14254;50.968;5.366;2022-09-13T06:24:57;9.55;;;4.00;;
26622;SDS011;14254;50.968;5.366;2022-09-13T06:27:23;11.00;;;4.03;;
26622;SDS011;14254;50.968;5.366;2022-09-13T06:29:49;6.32;;;4.22;;
26622;SDS011;14254;50.968;5.366;2022-09-13T06:32:15;5.97;;;3.97;;
26622;SDS011;14254;50.968;5.366;2022-09-13T06:34:41;9.52;;;4.43;;
26622;SDS011;14254;50.968;5.366;2022-09-13T06:37:06;8.57;;;4.13;;
26622;SDS011;14254;50.968;5.366;2022-09-13T06:39:32;6.22;;;3.80;;
26622;SDS011;14254;50.968;5.366;2022-09-13T06:41:58;7.85;;;4.82;;
26622;SDS011;14254;50.968;5.366;2022-09-13T06:44:24;6.50;;;3.95;;
26622;SDS011;14254;50.968;5.366;2022-09-13T06:46:50;5.70;;;4.32;;
26622;SDS011;14254;50.968;5.366;2022-09-13T06:49:15;5.53;;;4.07;;
26622;SDS011;14254;50.968;5.366;2022-09-13T06:51:41;5.25;;;3.95;;
26622;SDS011;14254;50.968;5.366;2022-09-13T06:54:07;5.90;;;3.55;;
26622;SDS011;14254;50.968;5.366;2022-09-13T06:56:34;6.07;;;3.72;;
26622;SDS011;14254;50.968;5.366;2022-09-13T06:59:01;9.07;;;4.75;;
26622;SDS011;14254;50.968;5.366;2022-09-13T07:01:32;4.60;;;3.50;;
26622;SDS011;14254;50.968;5.366;2022-09-13T07:04:04;6.40;;;3.90;;
26622;SDS011;14254;50.968;5.366;2022-09-13T07:06:35;9.13;;;4.38;;
26622;SDS011;14254;50.968;5.366;2022-09-13T07:09:03;6.32;;;4.20;;
26622;SDS011;14254;50.968;5.366;2022-09-13T07:11:32;10.18;;;4.03;;
26622;SDS011;14254;50.968;5.366;2022-09-13T07:14:00;7.72;;;4.53;;
26622;SDS011;14254;50.968;5.366;2022-09-13T07:16:28;6.10;;;4.22;;
26622;SDS011;14254;50.968;5.366;2022-09-13T07:18:58;8.77;;;4.22;;
26622;SDS011;14254;50.968;5.366;2022-09-13T07:21:26;8.07;;;4.72;;
26622;SDS011;14254;50.968;5.366;2022-09-13T07:23:53;6.57;;;3.97;;
26622;SDS011;14254;50.968;5.366;2022-09-13T07:26:19;5.22;;;3.40;;
26622;SDS011;14254;50.968;5.366;2022-09-13T07:28:46;8.52;;;3.95;;
26622;SDS011;14254;50.968;5.366;2022-09-13T07:33:42;8.13;;;3.92;;
26622;SDS011;14254;50.968;5.366;2022-09-13T07:36:08;6.43;;;3.53;;
26622;SDS011;14254;50.968;5.366;2022-09-13T07:38:36;5.65;;;3.83;;
26622;SDS011;14254;50.968;5.366;2022-09-13T07:41:03;6.32;;;3.53;;
26622;SDS011;14254;50.968;5.366;2022-09-13T07:43:31;5.97;;;4.05;;
26622;SDS011;14254;50.968;5.366;2022-09-13T07:46:04;7.63;;;4.13;;
26622;SDS011;14254;50.968;5.366;2022-09-13T07:48:32;4.43;;;3.95;;
26622;SDS011;14254;50.968;5.366;2022-09-13T07:51:02;12.82;;;4.35;;
26622;SDS011;14254;50.968;5.366;2022-09-13T07:53:29;10.75;;;3.97;;
26622;SDS011;14254;50.968;5.366;2022-09-13T07:55:59;6.18;;;3.67;;
26622;SDS011;14254;50.968;5.366;2022-09-13T07:58:28;7.82;;;3.95;;
26622;SDS011;14254;50.968;5.366;2022-09-13T08:01:06;5.47;;;3.90;;
26622;SDS011;14254;50.968;5.366;2022-09-13T08:03:34;8.57;;;3.72;;
26622;SDS011;14254;50.968;5.366;2022-09-13T08:06:00;7.18;;;4.22;;
26622;SDS011;14254;50.968;5.366;2022-09-13T08:08:27;13.32;;;4.30;;
26622;SDS011;14254;50.968;5.366;2022-09-13T08:10:53;9.32;;;5.10;;
26622;SDS011;14254;50.968;5.366;2022-09-13T08:13:19;10.60;;;3.65;;
26622;SDS011;14254;50.968;5.366;2022-09-13T08:15:45;11.68;;;4.45;;
26622;SDS011;14254;50.968;5.366;2022-09-13T08:18:11;9.32;;;4.10;;
26622;SDS011;14254;50.968;5.366;2022-09-13T08:20:37;6.38;;;3.80;;
26622;SDS011;14254;50.968;5.366;2022-09-13T08:23:04;15.27;;;3.88;;
26622;SDS011;14254;50.968;5.366;2022-09-13T08:25:34;9.23;;;3.72;;
26622;SDS011;14254;50.968;5.366;2022-09-13T08:28:01;7.03;;;3.15;;
26622;SDS011;14254;50.968;5.366;2022-09-13T08:30:30;14.77;;;4.00;;
26622;SDS011;14254;50.968;5.366;2022-09-13T08:33:00;36.28;;;6.45;;
26622;SDS011;14254;50.968;5.366;2022-09-13T08:35:27;8.88;;;3.33;;
26622;SDS011;14254;50.968;5.366;2022-09-13T08:37:53;5.95;;;3.25;;
26622;SDS011;14254;50.968;5.366;2022-09-13T08:40:19;8.52;;;3.50;;
26622;SDS011;14254;50.968;5.366;2022-09-13T08:45:20;12.27;;;4.30;;
26622;SDS011;14254;50.968;5.366;2022-09-13T08:47:50;9.85;;;3.70;;
26622;SDS011;14254;50.968;5.366;2022-09-13T08:50:24;14.13;;;3.42;;
26622;SDS011;14254;50.968;5.366;2022-09-13T08:53:05;11.45;;;3.90;;
26622;SDS011;14254;50.968;5.366;2022-09-13T08:56:02;4.47;;;3.30;;
26622;SDS011;14254;50.968;5.366;2022-09-13T09:03:48;8.35;;;4.10;;
26622;SDS011;14254;50.968;5.366;2022-09-13T09:06:34;11.32;;;4.30;;
26622;SDS011;14254;50.968;5.366;2022-09-13T09:11:59;10.68;;;4.60;;
26622;SDS011;14254;50.968;5.366;2022-09-13T09:14:37;11.63;;;4.60;;
26622;SDS011;14254;50.968;5.366;2022-09-13T09:29:11;7.47;;;4.35;;
26622;SDS011;14254;50.968;5.366;2022-09-13T09:37:24;10.88;;;3.53;;
26622;SDS011;14254;50.968;5.366;2022-09-13T09:39:52;6.50;;;3.60;;
26622;SDS011;14254;50.968;5.366;2022-09-13T09:42:26;4.07;;;2.85;;
26622;SDS011;14254;50.968;5.366;2022-09-13T09:45:01;5.15;;;3.40;;
26622;SDS011;14254;50.968;5.366;2022-09-13T09:47:43;9.80;;;3.83;;
26622;SDS011;14254;50.968;5.366;2022-09-13T09:50:16;7.38;;;3.40;;
26622;SDS011;14254;50.968;5.366;2022-09-13T09:55:45;8.02;;;3.25;;
26622;SDS011;14254;50.968;5.366;2022-09-13T09:58:13;5.55;;;3.25;;
26622;SDS011;14254;50.968;5.366;2022-09-13T10:00:55;8.40;;;3.42;;
26622;SDS011;14254;50.968;5.366;2022-09-13T10:03:27;8.55;;;3.08;;
26622;SDS011;14254;50.968;5.366;2022-09-13T10:08:37;10.77;;;3.83;;
26622;SDS011;14254;50.968;5.366;2022-09-13T10:11:04;5.10;;;3.08;;
26622;SDS011;14254;50.968;5.366;2022-09-13T10:13:30;8.98;;;3.28;;
26622;SDS011;14254;50.968;5.366;2022-09-13T10:18:33;7.53;;;2.90;;
26622;SDS011;14254;50.968;5.366;2022-09-13T10:23:30;7.03;;;2.50;;
26622;SDS011;14254;50.968;5.366;2022-09-13T10:26:01;9.18;;;3.00;;
26622;SDS011;14254;50.968;5.366;2022-09-13T10:31:33;8.52;;;2.88;;
26622;SDS011;14254;50.968;5.366;2022-09-13T10:34:03;5.93;;;2.60;;
26622;SDS011;14254;50.968;5.366;2022-09-13T10:36:41;3.40;;;2.22;;
26622;SDS011;14254;50.968;5.366;2022-09-13T10:39:19;5.95;;;2.40;;
26622;SDS011;14254;50.968;5.366;2022-09-13T10:44:27;11.23;;;2.50;;
26622;SDS011;14254;50.968;5.366;2022-09-13T10:47:20;3.40;;;1.95;;
26622;SDS011;14254;50.968;5.366;2022-09-13T10:49:54;4.78;;;2.53;;
26622;SDS011;14254;50.968;5.366;2022-09-13T10:52:36;10.53;;;2.83;;
26622;SDS011;14254;50.968;5.366;2022-09-13T10:57:42;6.90;;;2.40;;
26622;SDS011;14254;50.968;5.366;2022-09-13T11:09:31;2.70;;;2.05;;
26622;SDS011;14254;50.968;5.366;2022-09-13T11:11:48;3.40;;;1.73;;
26622;SDS011;14254;50.968;5.366;2022-09-13T11:28:50;6.88;;;2.05;;
26622;SDS011;14254;50.968;5.366;2022-09-13T11:34:16;4.82;;;2.38;;
26622;SDS011;14254;50.968;5.366;2022-09-13T11:45:11;6.93;;;2.30;;
26622;SDS011;14254;50.968;5.366;2022-09-13T11:51:04;3.42;;;1.98;;
26622;SDS011;14254;50.968;5.366;2022-09-13T11:56:26;5.20;;;2.15;;
26622;SDS011;14254;50.968;5.366;2022-09-13T12:01:35;4.03;;;2.03;;
26622;SDS011;14254;50.968;5.366;2022-09-13T12:04:08;4.53;;;2.08;;
26622;SDS011;14254;50.968;5.366;2022-09-13T12:06:59;3.47;;;2.33;;
26622;SDS011;14254;50.968;5.366;2022-09-13T12:09:42;8.90;;;2.42;;
26622;SDS011;14254;50.968;5.366;2022-09-13T12:12:15;3.65;;;2.22;;
26622;SDS011;14254;50.968;5.366;2022-09-13T12:17:38;3.88;;;2.50;;
26622;SDS011;14254;50.968;5.366;2022-09-13T12:20:05;3.05;;;1.70;;
26622;SDS011;14254;50.968;5.366;2022-09-13T12:22:44;6.50;;;2.10;;
26622;SDS011;14254;50.968;5.366;2022-09-13T12:25:16;2.80;;;1.95;;
26622;SDS011;14254;50.968;5.366;2022-09-13T12:27:58;5.85;;;1.80;;
26622;SDS011;14254;50.968;5.366;2022-09-13T12:30:54;2.97;;;1.63;;
26622;SDS011;14254;50.968;5.366;2022-09-13T12:33:22;2.63;;;1.90;;
26622;SDS011;14254;50.968;5.366;2022-09-13T12:41:23;3.38;;;2.40;;
26622;SDS011;14254;50.968;5.366;2022-09-13T12:47:33;6.00;;;1.83;;
26622;SDS011;14254;50.968;5.366;2022-09-13T12:49:51;4.95;;;2.30;;
26622;SDS011;14254;50.968;5.366;2022-09-13T13:00:28;8.07;;;1.92;;
26622;SDS011;14254;50.968;5.366;2022-09-13T13:03:00;3.42;;;1.65;;
26622;SDS011;14254;50.968;5.366;2022-09-13T13:05:50;8.38;;;2.08;;
26622;SDS011;14254;50.968;5.366;2022-09-13T13:08:29;6.63;;;1.77;;
26622;SDS011;14254;50.968;5.366;2022-09-13T13:13:36;5.22;;;1.63;;
26622;SDS011;14254;50.968;5.366;2022-09-13T13:16:25;7.35;;;2.15;;
26622;SDS011;14254;50.968;5.366;2022-09-13T13:18:50;5.88;;;1.50;;
26622;SDS011;14254;50.968;5.366;2022-09-13T13:21:25;4.85;;;1.83;;
26622;SDS011;14254;50.968;5.366;2022-09-13T13:26:44;4.72;;;2.35;;
26622;SDS011;14254;50.968;5.366;2022-09-13T13:32:08;4.75;;;2.38;;
26622;SDS011;14254;50.968;5.366;2022-09-13T13:39:35;4.20;;;2.05;;
26622;SDS011;14254;50.968;5.366;2022-09-13T13:49:51;5.30;;;1.73;;
26622;SDS011;14254;50.968;5.366;2022-09-13T13:52:35;2.30;;;2.10;;
26622;SDS011;14254;50.968;5.366;2022-09-13T13:55:22;6.07;;;1.70;;
26622;SDS011;14254;50.968;5.366;2022-09-13T13:58:25;7.82;;;2.05;;
26622;SDS011;14254;50.968;5.366;2022-09-13T14:00:55;6.90;;;2.67;;
26622;SDS011;14254;50.968;5.366;2022-09-13T14:06:21;3.55;;;2.65;;
26622;SDS011;14254;50.968;5.366;2022-09-13T14:08:51;6.70;;;2.47;;
26622;SDS011;14254;50.968;5.366;2022-09-13T14:13:59;5.47;;;1.73;;
26622;SDS011;14254;50.968;5.366;2022-09-13T14:19:23;4.10;;;2.72;;
26622;SDS011;14254;50.968;5.366;2022-09-13T14:24:38;5.40;;;2.10;;
26622;SDS011;14254;50.968;5.366;2022-09-13T14:27:14;7.95;;;2.40;;
26622;SDS011;14254;50.968;5.366;2022-09-13T14:30:03;2.75;;;2.55;;
26622;SDS011;14254;50.968;5.366;2022-09-13T14:32:41;5.65;;;2.30;;
26622;SDS011;14254;50.968;5.366;2022-09-13T14:38:20;8.55;;;2.80;;
26622;SDS011;14254;50.968;5.366;2022-09-13T14:40:50;6.97;;;2.55;;
26622;SDS011;14254;50.968;5.366;2022-09-13T14:43:18;7.22;;;2.53;;
26622;SDS011;14254;50.968;5.366;2022-09-13T14:45:49;4.88;;;2.85;;
26622;SDS011;14254;50.968;5.366;2022-09-13T14:48:20;8.15;;;2.95;;
26622;SDS011;14254;50.968;5.366;2022-09-13T14:50:51;6.25;;;3.10;;
26622;SDS011;14254;50.968;5.366;2022-09-13T14:53:23;3.00;;;2.70;;
26622;SDS011;14254;50.968;5.366;2022-09-13T14:55:51;5.85;;;2.67;;
26622;SDS011;14254;50.968;5.366;2022-09-13T15:01:18;6.40;;;3.20;;
26622;SDS011;14254;50.968;5.366;2022-09-13T15:03:57;6.20;;;3.22;;
26622;SDS011;14254;50.968;5.366;2022-09-13T15:06:26;7.30;;;3.47;;
26622;SDS011;14254;50.968;5.366;2022-09-13T15:08:56;8.32;;;3.90;;
26622;SDS011;14254;50.968;5.366;2022-09-13T15:11:36;7.72;;;3.78;;
26622;SDS011;14254;50.968;5.366;2022-09-13T15:16:52;6.05;;;3.35;;
26622;SDS011;14254;50.968;5.366;2022-09-13T15:21:48;6.68;;;3.40;;
26622;SDS011;14254;50.968;5.366;2022-09-13T15:24:19;5.10;;;2.88;;
26622;SDS011;14254;50.968;5.366;2022-09-13T15:26:48;2.85;;;2.65;;
26622;SDS011;14254;50.968;5.366;2022-09-13T15:29:26;6.43;;;3.90;;
26622;SDS011;14254;50.968;5.366;2022-09-13T15:31:57;6.32;;;3.45;;
26622;SDS011;14254;50.968;5.366;2022-09-13T15:34:23;3.85;;;3.20;;
26622;SDS011;14254;50.968;5.366;2022-09-13T15:39:40;7.60;;;3.47;;
26622;SDS011;14254;50.968;5.366;2022-09-13T15:42:26;6.32;;;4.28;;
26622;SDS011;14254;50.968;5.366;2022-09-13T15:44:51;4.75;;;3.72;;
26622;SDS011;14254;50.968;5.366;2022-09-13T15:47:18;10.35;;;3.80;;
26622;SDS011;14254;50.968;5.366;2022-09-13T15:49:48;6.25;;;3.80;;
26622;SDS011;14254;50.968;5.366;2022-09-13T15:52:15;12.48;;;4.20;;
26622;SDS011;14254;50.968;5.366;2022-09-13T15:54:41;7.07;;;4.45;;
26622;SDS011;14254;50.968;5.366;2022-09-13T15:57:28;9.40;;;4.60;;
26622;SDS011;14254;50.968;5.366;2022-09-13T15:59:54;8.45;;;3.88;;
26622;SDS011;14254;50.968;5.366;2022-09-13T16:02:23;6.97;;;4.25;;
26622;SDS011;14254;50.968;5.366;2022-09-13T16:04:52;9.65;;;4.40;;
26622;SDS011;14254;50.968;5.366;2022-09-13T16:07:19;6.22;;;4.40;;
26622;SDS011;14254;50.968;5.366;2022-09-13T16:09:45;7.68;;;4.45;;
26622;SDS011;14254;50.968;5.366;2022-09-13T16:12:12;6.78;;;4.10;;
26622;SDS011;14254;50.968;5.366;2022-09-13T16:14:38;6.22;;;4.25;;
26622;SDS011;14254;50.968;5.366;2022-09-13T16:17:06;12.23;;;4.55;;
26622;SDS011;14254;50.968;5.366;2022-09-13T16:19:41;6.55;;;4.72;;
26622;SDS011;14254;50.968;5.366;2022-09-13T16:22:06;5.63;;;4.60;;
26622;SDS011;14254;50.968;5.366;2022-09-13T16:24:32;5.45;;;4.07;;
26622;SDS011;14254;50.968;5.366;2022-09-13T16:27:00;6.72;;;4.18;;
26622;SDS011;14254;50.968;5.366;2022-09-13T16:29:26;5.65;;;4.13;;
26622;SDS011;14254;50.968;5.366;2022-09-13T16:31:52;7.43;;;4.20;;
26622;SDS011;14254;50.968;5.366;2022-09-13T16:34:18;5.32;;;4.38;;
26622;SDS011;14254;50.968;5.366;2022-09-13T16:36:44;5.68;;;4.13;;
26622;SDS011;14254;50.968;5.366;2022-09-13T16:39:09;6.25;;;4.22;;
26622;SDS011;14254;50.968;5.366;2022-09-13T16:41:37;12.43;;;5.20;;
26622;SDS011;14254;50.968;5.366;2022-09-13T16:44:03;11.27;;;5.07;;
26622;SDS011;14254;50.968;5.366;2022-09-13T16:46:30;9.27;;;4.80;;
26622;SDS011;14254;50.968;5.366;2022-09-13T16:48:55;5.60;;;5.10;;
26622;SDS011;14254;50.968;5.366;2022-09-13T16:51:22;5.82;;;4.15;;
26622;SDS011;14254;50.968;5.366;2022-09-13T16:53:49;11.85;;;4.13;;
26622;SDS011;14254;50.968;5.366;2022-09-13T16:56:16;6.20;;;4.25;;
26622;SDS011;14254;50.968;5.366;2022-09-13T16:58:43;4.75;;;4.28;;
26622;SDS011;14254;50.968;5.366;2022-09-13T17:01:13;8.65;;;4.35;;
26622;SDS011;14254;50.968;5.366;2022-09-13T17:03:44;8.13;;;4.32;;
26622;SDS011;14254;50.968;5.366;2022-09-13T17:06:11;6.13;;;5.53;;
26622;SDS011;14254;50.968;5.366;2022-09-13T17:08:38;9.18;;;5.20;;
26622;SDS011;14254;50.968;5.366;2022-09-13T17:11:06;7.75;;;5.40;;
26622;SDS011;14254;50.968;5.366;2022-09-13T17:13:37;6.80;;;5.53;;
26622;SDS011;14254;50.968;5.366;2022-09-13T17:16:04;12.57;;;4.95;;
26622;SDS011;14254;50.968;5.366;2022-09-13T17:18:30;9.15;;;5.88;;
26622;SDS011;14254;50.968;5.366;2022-09-13T17:20:57;5.97;;;5.38;;
26622;SDS011;14254;50.968;5.366;2022-09-13T17:23:24;7.00;;;5.68;;
26622;SDS011;14254;50.968;5.366;2022-09-13T17:25:50;6.68;;;5.82;;
26622;SDS011;14254;50.968;5.366;2022-09-13T17:28:16;10.65;;;6.22;;
26622;SDS011;14254;50.968;5.366;2022-09-13T17:30:43;5.95;;;5.18;;
26622;SDS011;14254;50.968;5.366;2022-09-13T17:33:10;6.57;;;5.25;;
26622;SDS011;14254;50.968;5.366;2022-09-13T17:35:37;10.50;;;6.38;;
26622;SDS011;14254;50.968;5.366;2022-09-13T17:38:03;12.90;;;6.70;;
26622;SDS011;14254;50.968;5.366;2022-09-13T17:40:30;9.63;;;6.45;;
26622;SDS011;14254;50.968;5.366;2022-09-13T17:42:56;16.70;;;6.88;;
26622;SDS011;14254;50.968;5.366;2022-09-13T17:45:22;12.10;;;6.30;;
26622;SDS011;14254;50.968;5.366;2022-09-13T17:47:52;11.85;;;7.03;;
26622;SDS011;14254;50.968;5.366;2022-09-13T17:50:20;9.80;;;7.40;;
26622;SDS011;14254;50.968;5.366;2022-09-13T17:52:46;12.82;;;7.80;;
26622;SDS011;14254;50.968;5.366;2022-09-13T17:55:12;18.60;;;7.82;;
26622;SDS011;14254;50.968;5.366;2022-09-13T17:57:37;12.52;;;7.95;;
26622;SDS011;14254;50.968;5.366;2022-09-13T18:00:04;14.82;;;8.02;;
26622;SDS011;14254;50.968;5.366;2022-09-13T18:02:36;16.08;;;8.95;;
26622;SDS011;14254;50.968;5.366;2022-09-13T18:05:02;12.98;;;8.55;;
26622;SDS011;14254;50.968;5.366;2022-09-13T18:07:28;16.73;;;9.30;;
26622;SDS011;14254;50.968;5.366;2022-09-13T18:09:54;12.98;;;9.25;;
26622;SDS011;14254;50.968;5.366;2022-09-13T18:12:19;13.48;;;9.38;;
26622;SDS011;14254;50.968;5.366;2022-09-13T18:14:45;18.25;;;10.45;;
26622;SDS011;14254;50.968;5.366;2022-09-13T18:17:11;13.93;;;9.88;;
26622;SDS011;14254;50.968;5.366;2022-09-13T18:19:37;12.95;;;10.40;;
26622;SDS011;14254;50.968;5.366;2022-09-13T18:22:04;15.93;;;10.63;;
26622;SDS011;14254;50.968;5.366;2022-09-13T18:24:31;18.40;;;10.93;;
26622;SDS011;14254;50.968;5.366;2022-09-13T18:26:58;14.73;;;10.68;;
26622;SDS011;14254;50.968;5.366;2022-09-13T18:29:24;15.70;;;10.75;;
26622;SDS011;14254;50.968;5.366;2022-09-13T18:31:52;18.63;;;12.40;;
26622;SDS011;14254;50.968;5.366;2022-09-13T18:34:18;15.85;;;10.85;;
26622;SDS011;14254;50.968;5.366;2022-09-13T18:36:43;14.82;;;11.45;;
26622;SDS011;14254;50.968;5.366;2022-09-13T18:39:14;20.20;;;11.35;;
26622;SDS011;14254;50.968;5.366;2022-09-13T18:41:42;17.20;;;10.70;;
26622;SDS011;14254;50.968;5.366;2022-09-13T18:44:09;16.08;;;11.20;;
26622;SDS011;14254;50.968;5.366;2022-09-13T18:46:35;17.10;;;10.93;;
26622;SDS011;14254;50.968;5.366;2022-09-13T18:49:02;14.85;;;10.60;;
26622;SDS011;14254;50.968;5.366;2022-09-13T18:51:30;14.05;;;9.50;;